sensor_id;sensor_type;location;lat;lon;timestamp;temperature;humidity
13086;DHT22;6609;49.882;8.664;2022-07-31T00:01:41;20.00;42.80
13086;DHT22;6609;49.882;8.664;2022-07-31T00:04:09;20.00;42.90
13086;DHT22;6609;49.882;8.664;2022-07-31T00:09:03;20.10;43.30
13086;DHT22;6609;49.882;8.664;2022-07-31T00:13:57;20.00;43.60
13086;DHT22;6609;49.882;8.664;2022-07-31T00:18:52;19.90;43.90
13086;DHT22;6609;49.882;8.664;2022-07-31T00:23:47;19.90;44.20
13086;DHT22;6609;49.882;8.664;2022-07-31T00:26:13;19.90;44.30
13086;DHT22;6609;49.882;8.664;2022-07-31T00:36:02;19.90;44.50
13086;DHT22;6609;49.882;8.664;2022-07-31T00:38:30;19.90;44.40
13086;DHT22;6609;49.882;8.664;2022-07-31T00:43:24;19.90;44.40
13086;DHT22;6609;49.882;8.664;2022-07-31T00:45:50;19.90;44.40
13086;DHT22;6609;49.882;8.664;2022-07-31T00:48:17;19.90;44.50
13086;DHT22;6609;49.882;8.664;2022-07-31T00:58:07;20.00;44.90
13086;DHT22;6609;49.882;8.664;2022-07-31T01:00:34;20.00;45.10
13086;DHT22;6609;49.882;8.664;2022-07-31T01:05:29;19.90;45.50
13086;DHT22;6609;49.882;8.664;2022-07-31T01:10:33;19.90;45.50
13086;DHT22;6609;49.882;8.664;2022-07-31T01:15:34;19.90;46.00
13086;DHT22;6609;49.882;8.664;2022-07-31T01:18:01;19.80;46.10
13086;DHT22;6609;49.882;8.664;2022-07-31T01:20:30;19.80;46.10
13086;DHT22;6609;49.882;8.664;2022-07-31T01:23:21;19.80;46.20
13086;DHT22;6609;49.882;8.664;2022-07-31T01:25:58;19.80;46.10
13086;DHT22;6609;49.882;8.664;2022-07-31T01:28:45;19.80;45.80
13086;DHT22;6609;49.882;8.664;2022-07-31T01:31:21;19.80;45.70
13086;DHT22;6609;49.882;8.664;2022-07-31T01:36:23;19.70;45.70
13086;DHT22;6609;49.882;8.664;2022-07-31T01:41:22;19.60;46.10
13086;DHT22;6609;49.882;8.664;2022-07-31T01:48:47;19.50;46.40
13086;DHT22;6609;49.882;8.664;2022-07-31T01:51:16;19.50;46.70
13086;DHT22;6609;49.882;8.664;2022-07-31T01:56:16;19.50;47.10
13086;DHT22;6609;49.882;8.664;2022-07-31T01:58:46;19.40;47.20
13086;DHT22;6609;49.882;8.664;2022-07-31T02:01:15;19.40;47.40
13086;DHT22;6609;49.882;8.664;2022-07-31T02:03:44;19.30;47.60
13086;DHT22;6609;49.882;8.664;2022-07-31T02:16:05;19.20;48.40
13086;DHT22;6609;49.882;8.664;2022-07-31T02:30:50;19.10;48.80
13086;DHT22;6609;49.882;8.664;2022-07-31T02:35:50;19.10;48.70
13086;DHT22;6609;49.882;8.664;2022-07-31T02:40:47;19.10;48.80
13086;DHT22;6609;49.882;8.664;2022-07-31T02:43:15;19.10;48.70
13086;DHT22;6609;49.882;8.664;2022-07-31T03:15:17;19.90;50.90
13086;DHT22;6609;49.882;8.664;2022-07-31T03:17:45;18.90;50.60
13086;DHT22;6609;49.882;8.664;2022-07-31T03:25:09;18.80;51.00
13086;DHT22;6609;49.882;8.664;2022-07-31T03:30:05;18.80;50.90
13086;DHT22;6609;49.882;8.664;2022-07-31T03:42:22;18.70;51.20
13086;DHT22;6609;49.882;8.664;2022-07-31T03:47:19;18.60;51.50
13086;DHT22;6609;49.882;8.664;2022-07-31T03:49:47;18.60;51.60
13086;DHT22;6609;49.882;8.664;2022-07-31T03:52:14;18.60;51.80
13086;DHT22;6609;49.882;8.664;2022-07-31T03:54:41;18.60;51.90
13086;DHT22;6609;49.882;8.664;2022-07-31T03:57:09;18.60;51.80
13086;DHT22;6609;49.882;8.664;2022-07-31T04:11:53;18.50;52.60
13086;DHT22;6609;49.882;8.664;2022-07-31T04:16:48;18.50;52.70
13086;DHT22;6609;49.882;8.664;2022-07-31T04:21:44;18.50;52.60
13086;DHT22;6609;49.882;8.664;2022-07-31T04:26:41;18.50;52.50
13086;DHT22;6609;49.882;8.664;2022-07-31T04:43:53;18.60;52.80
13086;DHT22;6609;49.882;8.664;2022-07-31T04:51:17;18.80;52.70
13086;DHT22;6609;49.882;8.664;2022-07-31T04:59:02;18.90;52.50
13086;DHT22;6609;49.882;8.664;2022-07-31T05:03:56;19.00;52.60
13086;DHT22;6609;49.882;8.664;2022-07-31T05:06:31;19.10;52.60
13086;DHT22;6609;49.882;8.664;2022-07-31T05:13:56;19.20;52.80
13086;DHT22;6609;49.882;8.664;2022-07-31T05:16:23;19.30;52.80
13086;DHT22;6609;49.882;8.664;2022-07-31T05:23:47;19.30;53.50
13086;DHT22;6609;49.882;8.664;2022-07-31T05:26:16;19.30;53.50
13086;DHT22;6609;49.882;8.664;2022-07-31T05:28:43;19.40;53.60
13086;DHT22;6609;49.882;8.664;2022-07-31T05:31:10;19.40;53.50
13086;DHT22;6609;49.882;8.664;2022-07-31T05:33:37;19.50;53.80
13086;DHT22;6609;49.882;8.664;2022-07-31T05:36:05;19.50;53.60
13086;DHT22;6609;49.882;8.664;2022-07-31T05:38:32;19.50;53.70
13086;DHT22;6609;49.882;8.664;2022-07-31T05:40:58;19.70;53.50
13086;DHT22;6609;49.882;8.664;2022-07-31T05:45:54;19.80;53.40
13086;DHT22;6609;49.882;8.664;2022-07-31T05:53:16;20.00;53.10
13086;DHT22;6609;49.882;8.664;2022-07-31T05:55:44;20.10;53.00
13086;DHT22;6609;49.882;8.664;2022-07-31T05:58:12;20.20;53.00
13086;DHT22;6609;49.882;8.664;2022-07-31T06:00:41;20.30;52.80
13086;DHT22;6609;49.882;8.664;2022-07-31T06:03:07;20.40;53.10
13086;DHT22;6609;49.882;8.664;2022-07-31T06:05:35;20.40;53.20
13086;DHT22;6609;49.882;8.664;2022-07-31T06:15:23;20.50;53.00
13086;DHT22;6609;49.882;8.664;2022-07-31T06:17:51;20.50;52.80
13086;DHT22;6609;49.882;8.664;2022-07-31T06:22:45;20.70;52.90
13086;DHT22;6609;49.882;8.664;2022-07-31T06:25:12;20.70;52.70
13086;DHT22;6609;49.882;8.664;2022-07-31T06:32:34;20.90;51.80
13086;DHT22;6609;49.882;8.664;2022-07-31T06:35:03;21.00;51.90
13086;DHT22;6609;49.882;8.664;2022-07-31T06:37:30;21.10;52.00
13086;DHT22;6609;49.882;8.664;2022-07-31T06:39:57;21.20;52.10
13086;DHT22;6609;49.882;8.664;2022-07-31T06:42:25;21.20;52.10
13086;DHT22;6609;49.882;8.664;2022-07-31T06:44:52;21.30;52.00
13086;DHT22;6609;49.882;8.664;2022-07-31T06:47:20;21.30;50.90
13086;DHT22;6609;49.882;8.664;2022-07-31T06:52:16;21.50;50.70
13086;DHT22;6609;49.882;8.664;2022-07-31T06:54:43;21.50;50.50
13086;DHT22;6609;49.882;8.664;2022-07-31T06:57:09;21.60;50.10
13086;DHT22;6609;49.882;8.664;2022-07-31T07:02:03;21.70;49.10
13086;DHT22;6609;49.882;8.664;2022-07-31T07:04:30;21.90;49.40
13086;DHT22;6609;49.882;8.664;2022-07-31T07:09:25;22.00;49.20
13086;DHT22;6609;49.882;8.664;2022-07-31T07:16:46;22.40;47.90
13086;DHT22;6609;49.882;8.664;2022-07-31T07:26:35;22.70;45.40
13086;DHT22;6609;49.882;8.664;2022-07-31T07:31:30;22.90;43.00
13086;DHT22;6609;49.882;8.664;2022-07-31T07:33:57;23.00;43.00
13086;DHT22;6609;49.882;8.664;2022-07-31T07:36:24;23.20;42.60
13086;DHT22;6609;49.882;8.664;2022-07-31T07:38:52;23.30;41.20
13086;DHT22;6609;49.882;8.664;2022-07-31T07:43:47;23.70;38.50
13086;DHT22;6609;49.882;8.664;2022-07-31T07:46:14;23.70;36.90
13086;DHT22;6609;49.882;8.664;2022-07-31T07:51:09;23.90;35.40
13086;DHT22;6609;49.882;8.664;2022-07-31T07:53:35;24.00;36.00
13086;DHT22;6609;49.882;8.664;2022-07-31T07:56:03;24.20;35.40
13086;DHT22;6609;49.882;8.664;2022-07-31T07:58:29;24.30;35.80
13086;DHT22;6609;49.882;8.664;2022-07-31T08:00:57;24.40;35.30
13086;DHT22;6609;49.882;8.664;2022-07-31T08:10:45;25.00;34.40
13086;DHT22;6609;49.882;8.664;2022-07-31T08:18:08;24.90;31.70
13086;DHT22;6609;49.882;8.664;2022-07-31T08:20:36;24.80;31.60
13086;DHT22;6609;49.882;8.664;2022-07-31T08:30:24;24.70;32.20
13086;DHT22;6609;49.882;8.664;2022-07-31T08:35:19;24.70;31.60
13086;DHT22;6609;49.882;8.664;2022-07-31T08:40:14;25.00;32.00
13086;DHT22;6609;49.882;8.664;2022-07-31T08:42:44;24.90;32.20
13086;DHT22;6609;49.882;8.664;2022-07-31T08:45:11;24.90;31.30
13086;DHT22;6609;49.882;8.664;2022-07-31T08:47:40;25.00;31.00
13086;DHT22;6609;49.882;8.664;2022-07-31T08:50:12;25.00;30.80
13086;DHT22;6609;49.882;8.664;2022-07-31T08:52:42;25.00;32.00
13086;DHT22;6609;49.882;8.664;2022-07-31T08:55:09;25.00;31.80
13086;DHT22;6609;49.882;8.664;2022-07-31T08:57:37;25.10;30.80
13086;DHT22;6609;49.882;8.664;2022-07-31T09:00:05;25.20;29.90
13086;DHT22;6609;49.882;8.664;2022-07-31T09:02:32;25.20;29.70
13086;DHT22;6609;49.882;8.664;2022-07-31T09:04:59;25.60;30.00
13086;DHT22;6609;49.882;8.664;2022-07-31T09:09:56;26.20;28.80
13086;DHT22;6609;49.882;8.664;2022-07-31T09:12:27;26.70;28.20
13086;DHT22;6609;49.882;8.664;2022-07-31T09:14:53;27.10;27.20
13086;DHT22;6609;49.882;8.664;2022-07-31T09:17:31;27.20;26.80
13086;DHT22;6609;49.882;8.664;2022-07-31T09:19:58;27.20;27.40
13086;DHT22;6609;49.882;8.664;2022-07-31T09:22:27;27.40;26.10
13086;DHT22;6609;49.882;8.664;2022-07-31T09:25:07;27.50;27.10
13086;DHT22;6609;49.882;8.664;2022-07-31T09:27:36;27.80;26.70
13086;DHT22;6609;49.882;8.664;2022-07-31T09:30:04;28.10;26.50
13086;DHT22;6609;49.882;8.664;2022-07-31T09:32:31;28.50;26.50
13086;DHT22;6609;49.882;8.664;2022-07-31T09:35:06;28.80;25.60
13086;DHT22;6609;49.882;8.664;2022-07-31T09:37:33;29.10;24.00
13086;DHT22;6609;49.882;8.664;2022-07-31T09:40:00;29.30;23.20
13086;DHT22;6609;49.882;8.664;2022-07-31T09:42:36;29.80;24.00
13086;DHT22;6609;49.882;8.664;2022-07-31T09:45:15;30.60;21.30
13086;DHT22;6609;49.882;8.664;2022-07-31T09:52:36;31.20;19.30
13086;DHT22;6609;49.882;8.664;2022-07-31T09:55:06;30.80;19.60
13086;DHT22;6609;49.882;8.664;2022-07-31T09:57:34;30.50;20.60
13086;DHT22;6609;49.882;8.664;2022-07-31T10:00:04;30.00;20.20
13086;DHT22;6609;49.882;8.664;2022-07-31T10:04:59;29.30;21.70
13086;DHT22;6609;49.882;8.664;2022-07-31T10:07:27;29.00;22.10
13086;DHT22;6609;49.882;8.664;2022-07-31T10:10:00;28.80;23.40
13086;DHT22;6609;49.882;8.664;2022-07-31T10:12:28;28.70;23.20
13086;DHT22;6609;49.882;8.664;2022-07-31T10:15:03;28.60;23.80
13086;DHT22;6609;49.882;8.664;2022-07-31T10:17:32;28.50;23.80
13086;DHT22;6609;49.882;8.664;2022-07-31T10:20:03;28.30;23.90
13086;DHT22;6609;49.882;8.664;2022-07-31T10:25:00;28.10;24.90
13086;DHT22;6609;49.882;8.664;2022-07-31T10:27:27;28.10;25.60
13086;DHT22;6609;49.882;8.664;2022-07-31T10:29:55;28.00;25.40
13086;DHT22;6609;49.882;8.664;2022-07-31T10:32:24;28.00;25.50
13086;DHT22;6609;49.882;8.664;2022-07-31T10:34:51;28.10;26.40
13086;DHT22;6609;49.882;8.664;2022-07-31T10:37:20;28.30;25.50
13086;DHT22;6609;49.882;8.664;2022-07-31T10:39:52;28.50;25.00
13086;DHT22;6609;49.882;8.664;2022-07-31T10:42:30;28.80;24.30
13086;DHT22;6609;49.882;8.664;2022-07-31T10:45:04;29.00;23.80
13086;DHT22;6609;49.882;8.664;2022-07-31T10:47:33;29.10;24.70
13086;DHT22;6609;49.882;8.664;2022-07-31T10:50:00;29.20;25.00
13086;DHT22;6609;49.882;8.664;2022-07-31T10:52:29;29.40;24.30
13086;DHT22;6609;49.882;8.664;2022-07-31T10:57:27;30.10;22.20
13086;DHT22;6609;49.882;8.664;2022-07-31T10:59:53;30.70;22.60
13086;DHT22;6609;49.882;8.664;2022-07-31T11:02:27;31.50;21.00
13086;DHT22;6609;49.882;8.664;2022-07-31T11:05:10;31.60;20.70
13086;DHT22;6609;49.882;8.664;2022-07-31T11:07:37;31.40;20.30
13086;DHT22;6609;49.882;8.664;2022-07-31T11:10:09;31.20;20.70
13086;DHT22;6609;49.882;8.664;2022-07-31T11:12:37;31.00;21.30
13086;DHT22;6609;49.882;8.664;2022-07-31T11:15:15;30.70;20.80
13086;DHT22;6609;49.882;8.664;2022-07-31T11:20:19;30.30;21.90
13086;DHT22;6609;49.882;8.664;2022-07-31T11:22:55;30.30;21.50
13086;DHT22;6609;49.882;8.664;2022-07-31T11:25:22;30.20;22.20
13086;DHT22;6609;49.882;8.664;2022-07-31T11:27:49;30.20;21.50
13086;DHT22;6609;49.882;8.664;2022-07-31T11:30:16;30.30;21.20
13086;DHT22;6609;49.882;8.664;2022-07-31T11:32:47;30.90;20.60
13086;DHT22;6609;49.882;8.664;2022-07-31T11:35:25;31.40;20.40
13086;DHT22;6609;49.882;8.664;2022-07-31T11:40:19;33.40;18.70
13086;DHT22;6609;49.882;8.664;2022-07-31T11:45:14;34.60;17.60
13086;DHT22;6609;49.882;8.664;2022-07-31T11:47:42;35.20;17.40
13086;DHT22;6609;49.882;8.664;2022-07-31T11:50:09;35.60;15.20
13086;DHT22;6609;49.882;8.664;2022-07-31T11:52:39;35.80;14.70
13086;DHT22;6609;49.882;8.664;2022-07-31T11:55:09;36.00;14.80
13086;DHT22;6609;49.882;8.664;2022-07-31T11:57:37;35.90;15.40
13086;DHT22;6609;49.882;8.664;2022-07-31T12:00:09;35.70;14.60
13086;DHT22;6609;49.882;8.664;2022-07-31T12:02:44;35.30;15.40
13086;DHT22;6609;49.882;8.664;2022-07-31T12:05:12;34.90;15.60
13086;DHT22;6609;49.882;8.664;2022-07-31T12:07:42;34.40;15.20
13086;DHT22;6609;49.882;8.664;2022-07-31T12:10:10;33.90;15.50
13086;DHT22;6609;49.882;8.664;2022-07-31T12:12:38;33.60;16.80
13086;DHT22;6609;49.882;8.664;2022-07-31T12:15:14;33.40;17.10
13086;DHT22;6609;49.882;8.664;2022-07-31T12:17:41;33.20;17.00
13086;DHT22;6609;49.882;8.664;2022-07-31T12:20:09;32.90;17.30
13086;DHT22;6609;49.882;8.664;2022-07-31T12:22:36;32.60;18.40
13086;DHT22;6609;49.882;8.664;2022-07-31T12:25:05;32.50;18.20
13086;DHT22;6609;49.882;8.664;2022-07-31T12:27:34;32.30;18.70
13086;DHT22;6609;49.882;8.664;2022-07-31T12:30:12;32.10;18.70
13086;DHT22;6609;49.882;8.664;2022-07-31T12:32:39;32.00;18.80
13086;DHT22;6609;49.882;8.664;2022-07-31T12:35:06;31.80;19.70
13086;DHT22;6609;49.882;8.664;2022-07-31T12:37:42;32.00;19.80
13086;DHT22;6609;49.882;8.664;2022-07-31T12:40:20;32.40;19.10
13086;DHT22;6609;49.882;8.664;2022-07-31T12:45:14;32.90;18.10
13086;DHT22;6609;49.882;8.664;2022-07-31T12:47:41;33.00;17.80
13086;DHT22;6609;49.882;8.664;2022-07-31T12:50:08;32.90;17.70
13086;DHT22;6609;49.882;8.664;2022-07-31T12:52:35;32.80;19.20
13086;DHT22;6609;49.882;8.664;2022-07-31T12:57:30;32.70;17.80
13086;DHT22;6609;49.882;8.664;2022-07-31T12:59:57;32.70;18.10
13086;DHT22;6609;49.882;8.664;2022-07-31T13:02:24;32.70;18.20
13086;DHT22;6609;49.882;8.664;2022-07-31T13:09:45;32.90;18.20
13086;DHT22;6609;49.882;8.664;2022-07-31T13:14:40;32.90;17.80
13086;DHT22;6609;49.882;8.664;2022-07-31T13:17:07;33.00;17.90
13086;DHT22;6609;49.882;8.664;2022-07-31T13:19:34;33.10;17.90
13086;DHT22;6609;49.882;8.664;2022-07-31T13:29:24;33.00;17.10
13086;DHT22;6609;49.882;8.664;2022-07-31T13:31:52;32.80;17.40
13086;DHT22;6609;49.882;8.664;2022-07-31T13:36:46;32.70;17.40
13086;DHT22;6609;49.882;8.664;2022-07-31T13:39:12;32.70;17.10
13086;DHT22;6609;49.882;8.664;2022-07-31T13:41:39;32.70;17.70
13086;DHT22;6609;49.882;8.664;2022-07-31T13:44:07;32.70;17.30
13086;DHT22;6609;49.882;8.664;2022-07-31T13:49:02;32.50;17.50
13086;DHT22;6609;49.882;8.664;2022-07-31T13:51:32;32.30;17.20
13086;DHT22;6609;49.882;8.664;2022-07-31T13:53:59;32.20;17.00
13086;DHT22;6609;49.882;8.664;2022-07-31T13:58:53;32.00;17.10
13086;DHT22;6609;49.882;8.664;2022-07-31T14:01:20;32.00;17.10
13086;DHT22;6609;49.882;8.664;2022-07-31T14:03:47;32.00;16.70
13086;DHT22;6609;49.882;8.664;2022-07-31T14:06:15;31.90;16.60
13086;DHT22;6609;49.882;8.664;2022-07-31T14:13:37;31.90;16.60
13086;DHT22;6609;49.882;8.664;2022-07-31T14:18:31;31.80;17.50
13086;DHT22;6609;49.882;8.664;2022-07-31T14:20:57;31.80;17.60
13086;DHT22;6609;49.882;8.664;2022-07-31T14:23:26;31.70;17.70
13086;DHT22;6609;49.882;8.664;2022-07-31T14:28:19;31.70;18.40
13086;DHT22;6609;49.882;8.664;2022-07-31T14:33:13;31.70;18.30
13086;DHT22;6609;49.882;8.664;2022-07-31T14:35:40;31.60;18.60
13086;DHT22;6609;49.882;8.664;2022-07-31T14:38:07;31.60;18.80
13086;DHT22;6609;49.882;8.664;2022-07-31T14:40:35;31.50;19.10
13086;DHT22;6609;49.882;8.664;2022-07-31T14:43:02;31.40;19.20
13086;DHT22;6609;49.882;8.664;2022-07-31T14:45:29;31.40;19.50
13086;DHT22;6609;49.882;8.664;2022-07-31T14:47:55;31.30;19.40
13086;DHT22;6609;49.882;8.664;2022-07-31T14:50:22;31.30;19.40
13086;DHT22;6609;49.882;8.664;2022-07-31T14:55:16;31.40;19.50
13086;DHT22;6609;49.882;8.664;2022-07-31T14:57:45;31.40;18.90
13086;DHT22;6609;49.882;8.664;2022-07-31T15:00:12;31.40;18.70
13086;DHT22;6609;49.882;8.664;2022-07-31T15:05:08;31.30;18.80
13086;DHT22;6609;49.882;8.664;2022-07-31T15:07:35;31.30;19.40
13086;DHT22;6609;49.882;8.664;2022-07-31T15:12:29;31.40;19.50
13086;DHT22;6609;49.882;8.664;2022-07-31T15:14:57;31.40;19.70
13086;DHT22;6609;49.882;8.664;2022-07-31T15:24:46;31.20;20.20
13086;DHT22;6609;49.882;8.664;2022-07-31T15:27:13;31.20;20.60
13086;DHT22;6609;49.882;8.664;2022-07-31T15:34:35;31.10;20.60
13086;DHT22;6609;49.882;8.664;2022-07-31T15:37:02;31.10;20.50
13086;DHT22;6609;49.882;8.664;2022-07-31T15:39:29;31.10;20.70
13086;DHT22;6609;49.882;8.664;2022-07-31T15:41:56;31.10;20.80
13086;DHT22;6609;49.882;8.664;2022-07-31T15:44:23;31.00;19.90
13086;DHT22;6609;49.882;8.664;2022-07-31T15:46:49;31.00;19.60
13086;DHT22;6609;49.882;8.664;2022-07-31T15:49:17;31.00;20.40
13086;DHT22;6609;49.882;8.664;2022-07-31T15:59:05;30.90;20.80
13086;DHT22;6609;49.882;8.664;2022-07-31T16:01:32;31.00;20.60
13086;DHT22;6609;49.882;8.664;2022-07-31T16:03:59;31.00;20.40
13086;DHT22;6609;49.882;8.664;2022-07-31T16:08:54;30.80;20.30
13086;DHT22;6609;49.882;8.664;2022-07-31T16:13:48;30.60;21.10
13086;DHT22;6609;49.882;8.664;2022-07-31T16:16:14;30.60;21.50
13086;DHT22;6609;49.882;8.664;2022-07-31T16:18:41;30.50;21.30
13086;DHT22;6609;49.882;8.664;2022-07-31T16:21:08;30.50;21.20
13086;DHT22;6609;49.882;8.664;2022-07-31T16:23:36;30.40;21.40
13086;DHT22;6609;49.882;8.664;2022-07-31T16:30:57;30.30;22.10
13086;DHT22;6609;49.882;8.664;2022-07-31T16:33:24;30.30;22.30
13086;DHT22;6609;49.882;8.664;2022-07-31T16:35:50;30.30;22.40
13086;DHT22;6609;49.882;8.664;2022-07-31T16:38:17;30.20;22.60
13086;DHT22;6609;49.882;8.664;2022-07-31T16:40:45;30.10;22.90
13086;DHT22;6609;49.882;8.664;2022-07-31T16:50:33;29.90;23.70
13086;DHT22;6609;49.882;8.664;2022-07-31T16:55:27;29.80;24.00
13086;DHT22;6609;49.882;8.664;2022-07-31T16:57:56;29.80;24.20
13086;DHT22;6609;49.882;8.664;2022-07-31T17:00:22;29.80;23.90
13086;DHT22;6609;49.882;8.664;2022-07-31T17:02:49;29.80;24.30
13086;DHT22;6609;49.882;8.664;2022-07-31T17:05:17;29.80;24.30
13086;DHT22;6609;49.882;8.664;2022-07-31T17:10:11;29.70;24.20
13086;DHT22;6609;49.882;8.664;2022-07-31T17:12:38;29.70;24.40
13086;DHT22;6609;49.882;8.664;2022-07-31T17:15:07;29.70;24.30
13086;DHT22;6609;49.882;8.664;2022-07-31T17:20:02;29.70;24.70
13086;DHT22;6609;49.882;8.664;2022-07-31T17:32:18;29.60;24.80
13086;DHT22;6609;49.882;8.664;2022-07-31T17:37:13;29.50;25.10
13086;DHT22;6609;49.882;8.664;2022-07-31T17:39:42;29.50;25.00
13086;DHT22;6609;49.882;8.664;2022-07-31T17:44:36;29.30;25.10
13086;DHT22;6609;49.882;8.664;2022-07-31T17:47:03;29.30;25.10
13086;DHT22;6609;49.882;8.664;2022-07-31T17:49:31;29.30;25.60
13086;DHT22;6609;49.882;8.664;2022-07-31T17:56:52;29.20;26.00
13086;DHT22;6609;49.882;8.664;2022-07-31T17:59:19;29.10;25.80
13086;DHT22;6609;49.882;8.664;2022-07-31T18:04:12;29.00;26.10
13086;DHT22;6609;49.882;8.664;2022-07-31T18:06:42;29.00;25.90
13086;DHT22;6609;49.882;8.664;2022-07-31T18:16:30;28.80;26.20
13086;DHT22;6609;49.882;8.664;2022-07-31T18:18:57;28.80;26.20
13086;DHT22;6609;49.882;8.664;2022-07-31T18:23:52;28.70;26.90
13086;DHT22;6609;49.882;8.664;2022-07-31T18:26:19;28.60;27.70
13086;DHT22;6609;49.882;8.664;2022-07-31T18:28:46;28.50;28.40
13086;DHT22;6609;49.882;8.664;2022-07-31T18:31:13;28.50;28.80
13086;DHT22;6609;49.882;8.664;2022-07-31T18:33:40;28.40;29.00
13086;DHT22;6609;49.882;8.664;2022-07-31T18:36:07;28.40;28.70
13086;DHT22;6609;49.882;8.664;2022-07-31T18:38:34;28.30;29.00
13086;DHT22;6609;49.882;8.664;2022-07-31T18:41:03;28.20;29.50
13086;DHT22;6609;49.882;8.664;2022-07-31T18:43:31;28.10;30.00
13086;DHT22;6609;49.882;8.664;2022-07-31T18:48:26;28.10;30.50
13086;DHT22;6609;49.882;8.664;2022-07-31T18:50:52;28.00;30.50
13086;DHT22;6609;49.882;8.664;2022-07-31T18:55:46;27.90;32.90
13086;DHT22;6609;49.882;8.664;2022-07-31T18:58:14;27.80;33.30
13086;DHT22;6609;49.882;8.664;2022-07-31T19:03:08;27.60;33.10
13086;DHT22;6609;49.882;8.664;2022-07-31T19:08:02;27.60;32.00
13086;DHT22;6609;49.882;8.664;2022-07-31T19:10:30;27.60;31.60
13086;DHT22;6609;49.882;8.664;2022-07-31T19:12:56;27.60;31.90
13086;DHT22;6609;49.882;8.664;2022-07-31T19:15:24;27.60;31.20
13086;DHT22;6609;49.882;8.664;2022-07-31T19:25:13;27.60;31.20
13086;DHT22;6609;49.882;8.664;2022-07-31T19:30:07;27.60;31.00
13086;DHT22;6609;49.882;8.664;2022-07-31T19:32:35;27.60;31.20
13086;DHT22;6609;49.882;8.664;2022-07-31T19:35:04;27.60;31.10
13086;DHT22;6609;49.882;8.664;2022-07-31T19:37:30;27.60;31.10
13086;DHT22;6609;49.882;8.664;2022-07-31T19:39:57;27.50;31.10
13086;DHT22;6609;49.882;8.664;2022-07-31T19:44:55;27.40;31.70
13086;DHT22;6609;49.882;8.664;2022-07-31T19:47:22;27.40;32.60
13086;DHT22;6609;49.882;8.664;2022-07-31T19:49:50;27.40;33.50
13086;DHT22;6609;49.882;8.664;2022-07-31T19:52:17;27.30;34.30
13086;DHT22;6609;49.882;8.664;2022-07-31T19:54:45;27.20;35.30
13086;DHT22;6609;49.882;8.664;2022-07-31T20:04:34;26.90;36.80
13086;DHT22;6609;49.882;8.664;2022-07-31T20:07:03;26.90;37.60
13086;DHT22;6609;49.882;8.664;2022-07-31T20:09:29;26.80;37.90
13086;DHT22;6609;49.882;8.664;2022-07-31T20:11:56;26.70;38.50
13086;DHT22;6609;49.882;8.664;2022-07-31T20:21:44;26.50;40.20
13086;DHT22;6609;49.882;8.664;2022-07-31T20:24:12;26.40;40.30
13086;DHT22;6609;49.882;8.664;2022-07-31T20:26:39;26.40;40.60
13086;DHT22;6609;49.882;8.664;2022-07-31T20:29:05;26.30;41.10
13086;DHT22;6609;49.882;8.664;2022-07-31T20:31:32;26.20;41.50
13086;DHT22;6609;49.882;8.664;2022-07-31T20:36:27;26.30;42.00
13086;DHT22;6609;49.882;8.664;2022-07-31T20:38:55;26.00;42.20
13086;DHT22;6609;49.882;8.664;2022-07-31T20:41:24;26.00;42.30
13086;DHT22;6609;49.882;8.664;2022-07-31T20:46:18;25.90;42.30
13086;DHT22;6609;49.882;8.664;2022-07-31T20:48:45;25.80;42.40
13086;DHT22;6609;49.882;8.664;2022-07-31T20:56:12;25.60;43.20
13086;DHT22;6609;49.882;8.664;2022-07-31T20:58:40;25.50;43.40
13086;DHT22;6609;49.882;8.664;2022-07-31T21:01:07;25.40;43.70
13086;DHT22;6609;49.882;8.664;2022-07-31T21:03:34;25.40;43.80
13086;DHT22;6609;49.882;8.664;2022-07-31T21:06:01;25.30;43.90
13086;DHT22;6609;49.882;8.664;2022-07-31T21:08:27;25.30;44.00
13086;DHT22;6609;49.882;8.664;2022-07-31T21:10:54;25.20;44.20
13086;DHT22;6609;49.882;8.664;2022-07-31T21:15:49;25.10;44.50
13086;DHT22;6609;49.882;8.664;2022-07-31T21:18:18;25.10;44.30
13086;DHT22;6609;49.882;8.664;2022-07-31T21:20:46;25.10;44.00
13086;DHT22;6609;49.882;8.664;2022-07-31T21:23:14;25.00;44.30
13086;DHT22;6609;49.882;8.664;2022-07-31T21:25:41;25.00;44.60
13086;DHT22;6609;49.882;8.664;2022-07-31T21:28:09;25.00;44.50
13086;DHT22;6609;49.882;8.664;2022-07-31T21:33:05;25.00;44.40
13086;DHT22;6609;49.882;8.664;2022-07-31T21:35:33;25.00;44.60
13086;DHT22;6609;49.882;8.664;2022-07-31T21:38:02;24.90;44.60
13086;DHT22;6609;49.882;8.664;2022-07-31T21:40:29;24.90;45.00
13086;DHT22;6609;49.882;8.664;2022-07-31T21:42:58;24.90;45.40
13086;DHT22;6609;49.882;8.664;2022-07-31T21:45:25;24.90;45.50
13086;DHT22;6609;49.882;8.664;2022-07-31T21:47:52;24.80;45.60
13086;DHT22;6609;49.882;8.664;2022-07-31T21:50:22;24.70;46.00
13086;DHT22;6609;49.882;8.664;2022-07-31T21:52:50;24.70;45.60
13086;DHT22;6609;49.882;8.664;2022-07-31T21:55:16;24.70;45.50
13086;DHT22;6609;49.882;8.664;2022-07-31T21:57:43;24.70;45.60
13086;DHT22;6609;49.882;8.664;2022-07-31T22:00:11;24.70;46.00
13086;DHT22;6609;49.882;8.664;2022-07-31T22:07:52;24.50;46.00
13086;DHT22;6609;49.882;8.664;2022-07-31T22:12:47;24.50;46.20
13086;DHT22;6609;49.882;8.664;2022-07-31T22:15:15;24.40;46.10
13086;DHT22;6609;49.882;8.664;2022-07-31T22:17:42;24.50;46.40
13086;DHT22;6609;49.882;8.664;2022-07-31T22:20:09;24.40;46.50
13086;DHT22;6609;49.882;8.664;2022-07-31T22:25:07;24.30;47.00
13086;DHT22;6609;49.882;8.664;2022-07-31T22:27:34;24.30;47.30
13086;DHT22;6609;49.882;8.664;2022-07-31T22:30:20;24.30;47.80
13086;DHT22;6609;49.882;8.664;2022-07-31T22:32:48;24.20;47.90
13086;DHT22;6609;49.882;8.664;2022-07-31T22:37:42;24.20;48.30
13086;DHT22;6609;49.882;8.664;2022-07-31T22:40:14;24.20;48.30
13086;DHT22;6609;49.882;8.664;2022-07-31T22:42:42;24.10;48.40
13086;DHT22;6609;49.882;8.664;2022-07-31T22:45:10;24.10;48.80
13086;DHT22;6609;49.882;8.664;2022-07-31T22:47:37;24.10;48.90
13086;DHT22;6609;49.882;8.664;2022-07-31T22:50:08;24.10;48.90
13086;DHT22;6609;49.882;8.664;2022-07-31T22:52:36;24.10;49.00
13086;DHT22;6609;49.882;8.664;2022-07-31T22:57:31;24.00;49.30
13086;DHT22;6609;49.882;8.664;2022-07-31T22:59:58;24.00;49.60
13086;DHT22;6609;49.882;8.664;2022-07-31T23:02:25;23.90;49.50
13086;DHT22;6609;49.882;8.664;2022-07-31T23:07:19;24.00;49.20
13086;DHT22;6609;49.882;8.664;2022-07-31T23:12:13;24.10;48.40
13086;DHT22;6609;49.882;8.664;2022-07-31T23:14:41;24.10;48.00
13086;DHT22;6609;49.882;8.664;2022-07-31T23:17:07;24.20;48.00
13086;DHT22;6609;49.882;8.664;2022-07-31T23:19:34;24.20;47.90
13086;DHT22;6609;49.882;8.664;2022-07-31T23:26:55;24.30;47.20
13086;DHT22;6609;49.882;8.664;2022-07-31T23:31:50;24.40;46.80
13086;DHT22;6609;49.882;8.664;2022-07-31T23:34:17;24.40;46.70
13086;DHT22;6609;49.882;8.664;2022-07-31T23:36:44;24.50;46.60
13086;DHT22;6609;49.882;8.664;2022-07-31T23:39:10;24.50;46.40
13086;DHT22;6609;49.882;8.664;2022-07-31T23:41:38;24.50;46.50
13086;DHT22;6609;49.882;8.664;2022-07-31T23:44:22;24.50;46.30
13086;DHT22;6609;49.882;8.664;2022-07-31T23:46:50;24.50;46.30
13086;DHT22;6609;49.882;8.664;2022-07-31T23:49:17;24.50;46.20